createdAt,value
2018-06-16T00:01:36.999Z,17.10
2018-06-16T00:04:05.907Z,17.10
2018-06-16T00:06:34.552Z,17.10
2018-06-16T00:09:03.343Z,17.20
2018-06-16T00:11:31.904Z,17.30
2018-06-16T00:14:00.521Z,17.20
2018-06-16T00:16:29.086Z,17.20
2018-06-16T00:18:57.682Z,17.10
2018-06-16T00:21:26.258Z,17.20
2018-06-16T00:23:54.825Z,17.20
2018-06-16T00:26:23.545Z,17.20
2018-06-16T00:28:52.264Z,17.20
2018-06-16T00:31:20.841Z,17.20
2018-06-16T00:33:49.461Z,17.10
2018-06-16T00:38:46.838Z,17.10
2018-06-16T00:41:15.439Z,17.10
2018-06-16T00:43:44.007Z,17.10
2018-06-16T00:46:12.601Z,17.10
2018-06-16T00:48:41.210Z,17.10
2018-06-16T00:51:10.098Z,17.20
2018-06-16T00:53:38.733Z,17.10
2018-06-16T00:56:07.302Z,17.10
2018-06-16T00:58:35.953Z,17.00
2018-06-16T01:01:04.540Z,16.90
2018-06-16T01:03:33.120Z,16.80
2018-06-16T01:06:01.685Z,16.80
2018-06-16T01:08:30.280Z,16.80
2018-06-16T01:10:58.850Z,16.70
2018-06-16T01:13:27.929Z,16.70
2018-06-16T01:15:56.510Z,16.80
2018-06-16T01:18:25.070Z,16.70
2018-06-16T01:20:53.658Z,16.70
2018-06-16T01:23:22.196Z,16.70
2018-06-16T01:25:50.787Z,16.70
2018-06-16T01:28:19.348Z,16.60
2018-06-16T01:33:16.093Z,16.40
2018-06-16T01:38:12.921Z,16.40
2018-06-16T01:40:41.486Z,16.40
2018-06-16T01:43:10.021Z,16.40
2018-06-16T01:45:38.601Z,16.50
2018-06-16T01:48:07.150Z,16.40
2018-06-16T01:50:35.735Z,16.40
2018-06-16T01:53:04.283Z,16.40
2018-06-16T01:55:33.483Z,16.40
2018-06-16T01:58:03.476Z,16.30
2018-06-16T02:03:00.584Z,16.20
2018-06-16T02:05:29.142Z,16.20
2018-06-16T02:07:58.352Z,16.20
2018-06-16T02:10:27.066Z,16.10
2018-06-16T02:12:55.587Z,16.10
2018-06-16T02:15:24.896Z,16.10
2018-06-16T02:20:21.621Z,15.90
2018-06-16T02:22:50.749Z,16.00
2018-06-16T02:25:19.313Z,16.00
2018-06-16T02:27:47.858Z,16.00
2018-06-16T02:30:16.413Z,16.00
2018-06-16T02:35:13.829Z,16.00
2018-06-16T02:37:42.371Z,16.00
2018-06-16T02:42:39.108Z,15.90
2018-06-16T02:45:07.653Z,15.80
2018-06-16T02:47:36.276Z,15.80
2018-06-16T02:50:04.942Z,15.80
2018-06-16T02:52:33.957Z,15.90
2018-06-16T02:55:02.509Z,15.80
2018-06-16T02:57:31.010Z,15.90
2018-06-16T02:59:59.562Z,15.90
2018-06-16T03:02:28.113Z,16.00
2018-06-16T03:07:24.857Z,16.00
2018-06-16T03:09:54.413Z,16.10
2018-06-16T03:12:23.119Z,16.00
2018-06-16T03:14:51.674Z,16.10
2018-06-16T03:17:20.186Z,16.10
2018-06-16T03:19:48.732Z,16.10
2018-06-16T03:22:17.263Z,16.10
2018-06-16T03:24:45.826Z,16.00
2018-06-16T03:27:14.332Z,15.90
2018-06-16T03:29:42.882Z,15.90
2018-06-16T03:32:11.393Z,16.00
2018-06-16T03:34:39.945Z,16.00
2018-06-16T03:37:08.486Z,16.10
2018-06-16T03:39:37.041Z,16.10
2018-06-16T03:42:05.606Z,16.10
2018-06-16T03:44:34.189Z,16.10
2018-06-16T03:47:03.234Z,16.10
2018-06-16T03:49:32.386Z,16.10
2018-06-16T03:52:00.966Z,16.20
2018-06-16T03:54:29.485Z,16.10
2018-06-16T03:56:58.014Z,16.20
2018-06-16T03:59:26.528Z,16.20
2018-06-16T04:01:55.118Z,16.20
2018-06-16T04:04:23.653Z,16.20
2018-06-16T04:06:52.199Z,16.20
2018-06-16T04:09:20.736Z,16.20
2018-06-16T04:11:49.261Z,16.20
2018-06-16T04:14:17.770Z,16.20
2018-06-16T04:19:15.270Z,16.40
2018-06-16T04:21:43.837Z,16.40
2018-06-16T04:24:12.366Z,16.50
2018-06-16T04:26:40.956Z,16.60
2018-06-16T04:29:09.466Z,16.60
2018-06-16T04:31:38.003Z,16.50
2018-06-16T04:34:07.111Z,16.40
2018-06-16T04:36:35.646Z,16.40
2018-06-16T04:41:34.785Z,16.70
2018-06-16T04:44:03.306Z,16.90
2018-06-16T04:46:32.410Z,17.10
2018-06-16T04:49:01.402Z,17.10
2018-06-16T04:51:29.954Z,17.30
2018-06-16T04:53:58.468Z,17.40
2018-06-16T04:56:27.730Z,17.40
2018-06-16T04:58:56.283Z,17.30
2018-06-16T05:03:53.038Z,17.60
2018-06-16T05:06:21.569Z,17.80
2018-06-16T05:08:50.226Z,17.80
2018-06-16T05:11:19.085Z,17.60
2018-06-16T05:13:47.625Z,17.60
2018-06-16T05:16:16.190Z,17.60
2018-06-16T05:18:44.719Z,17.80
2018-06-16T05:21:13.272Z,18.00
2018-06-16T05:23:41.784Z,18.20
2018-06-16T05:26:10.357Z,18.30
2018-06-16T05:28:38.869Z,18.40
2018-06-16T05:31:07.474Z,18.50
2018-06-16T05:38:32.436Z,18.70
2018-06-16T05:41:00.988Z,18.80
2018-06-16T05:43:29.526Z,18.80
2018-06-16T05:45:58.049Z,18.70
2018-06-16T05:48:26.555Z,18.60
2018-06-16T05:50:55.931Z,18.60
2018-06-16T05:53:24.453Z,18.70
2018-06-16T05:55:52.999Z,18.80
2018-06-16T05:58:21.512Z,18.80
2018-06-16T06:00:50.087Z,19.00
2018-06-16T06:03:18.639Z,19.00
2018-06-16T06:05:47.217Z,19.10
2018-06-16T06:08:15.748Z,19.20
2018-06-16T06:13:12.945Z,19.10
2018-06-16T06:15:42.288Z,19.10
2018-06-16T06:18:10.794Z,19.20
2018-06-16T06:36:54.566Z,19.70
2018-06-16T06:39:23.146Z,19.80
2018-06-16T06:41:51.677Z,19.80
2018-06-16T06:44:20.601Z,19.80
2018-06-16T06:49:18.082Z,19.90
2018-06-16T06:54:14.893Z,20.10
2018-06-16T06:56:43.452Z,20.20
2018-06-16T06:59:12.620Z,20.20
2018-06-16T07:04:09.456Z,20.60
2018-06-16T07:06:38.021Z,20.60
2018-06-16T07:09:08.977Z,20.70
2018-06-16T07:11:37.671Z,20.80
2018-06-16T07:14:06.298Z,20.90
2018-06-16T07:16:35.019Z,21.10
2018-06-16T07:19:03.654Z,21.30
2018-06-16T07:24:00.604Z,22.10
2018-06-16T07:26:29.386Z,22.20
2018-06-16T07:28:57.969Z,22.40
2018-06-16T07:31:26.666Z,22.80
2018-06-16T07:33:55.526Z,23.00
2018-06-16T07:36:24.047Z,23.10
2018-06-16T07:43:49.273Z,22.60
2018-06-16T07:46:18.602Z,22.60
2018-06-16T07:51:16.361Z,22.80
2018-06-16T07:53:44.900Z,22.80
2018-06-16T07:56:13.485Z,22.90
2018-06-16T07:58:42.026Z,22.70
2018-06-16T08:03:38.831Z,23.20
2018-06-16T08:06:07.517Z,23.30
2018-06-16T08:08:36.054Z,23.30
2018-06-16T08:13:34.145Z,23.70
2018-06-16T08:18:30.946Z,23.70
2018-06-16T08:20:59.513Z,23.40
2018-06-16T08:23:28.061Z,23.50
2018-06-16T08:25:56.624Z,23.60
2018-06-16T08:28:25.169Z,23.60
2018-06-16T08:30:53.747Z,23.90
2018-06-16T08:33:22.285Z,23.80
2018-06-16T08:35:50.928Z,23.80
2018-06-16T08:38:19.517Z,23.80
2018-06-16T08:40:48.089Z,23.80
2018-06-16T08:43:16.740Z,24.10
2018-06-16T08:45:45.269Z,24.20
2018-06-16T08:48:13.833Z,24.40
2018-06-16T08:50:42.435Z,24.60
2018-06-16T08:53:11.014Z,24.50
2018-06-16T08:55:39.724Z,24.60
2018-06-16T08:58:08.525Z,24.50
2018-06-16T09:00:37.125Z,24.40
2018-06-16T09:03:05.760Z,24.10
2018-06-16T09:05:34.343Z,24.10
2018-06-16T09:08:02.912Z,23.90
2018-06-16T09:10:31.509Z,24.00
2018-06-16T09:13:00.070Z,24.10
2018-06-16T09:17:57.812Z,24.30
2018-06-16T09:20:26.413Z,24.40
2018-06-16T09:22:55.046Z,24.30
2018-06-16T09:25:23.727Z,24.20
2018-06-16T09:27:52.331Z,24.20
2018-06-16T09:30:20.914Z,24.20
2018-06-16T09:32:49.490Z,24.40
2018-06-16T09:35:18.098Z,24.20
2018-06-16T09:37:47.399Z,24.20
2018-06-16T09:40:16.058Z,24.40
2018-06-16T09:42:45.097Z,24.80
2018-06-16T09:45:14.266Z,25.10
2018-06-16T09:47:43.438Z,25.20
2018-06-16T09:52:41.127Z,25.30
2018-06-16T09:55:09.703Z,25.30
2018-06-16T10:00:10.855Z,25.70
2018-06-16T10:05:07.725Z,25.90
2018-06-16T10:15:01.135Z,25.90
2018-06-16T10:17:36.579Z,26.20
2018-06-16T10:22:33.534Z,26.00
2018-06-16T10:25:02.082Z,26.10
2018-06-16T10:27:30.721Z,26.40
2018-06-16T10:32:27.542Z,26.60
2018-06-16T10:34:56.217Z,26.80
2018-06-16T10:37:25.182Z,26.80
2018-06-16T10:39:53.749Z,26.80
2018-06-16T10:44:50.782Z,26.20
2018-06-16T10:47:19.828Z,25.70
2018-06-16T10:49:48.422Z,25.60
2018-06-16T10:52:17.005Z,25.70
2018-06-16T10:54:45.599Z,26.00
2018-06-16T10:57:14.283Z,26.30
2018-06-16T10:59:43.438Z,26.40
2018-06-16T11:02:12.094Z,26.70
2018-06-16T11:04:40.696Z,26.90
2018-06-16T11:07:09.234Z,27.10
2018-06-16T11:09:38.461Z,27.20
2018-06-16T11:12:07.013Z,27.10
2018-06-16T11:14:36.090Z,27.10
2018-06-16T11:17:05.262Z,27.00
2018-06-16T11:19:33.823Z,27.00
2018-06-16T11:22:03.113Z,27.10
2018-06-16T11:24:31.910Z,27.00
2018-06-16T11:27:00.488Z,26.80
2018-06-16T11:29:29.090Z,26.30
2018-06-16T11:31:57.623Z,26.40
2018-06-16T11:34:26.203Z,26.60
2018-06-16T11:36:54.771Z,27.00
2018-06-16T11:41:51.636Z,27.20
2018-06-16T11:46:50.109Z,27.40
2018-06-16T11:49:19.942Z,27.10
2018-06-16T11:51:49.262Z,27.10
2018-06-16T11:54:18.385Z,27.20
2018-06-16T11:56:46.958Z,27.20
2018-06-16T11:59:15.557Z,27.30
2018-06-16T12:01:44.105Z,27.30
2018-06-16T12:04:12.720Z,27.40
2018-06-16T12:06:41.283Z,27.20
2018-06-16T12:09:11.869Z,26.90
2018-06-16T12:11:40.526Z,26.70
2018-06-16T12:14:10.578Z,26.60
2018-06-16T12:16:39.450Z,26.50
2018-06-16T12:19:08.478Z,26.60
2018-06-16T12:21:37.234Z,26.60
2018-06-16T12:24:06.158Z,26.60
2018-06-16T12:26:34.741Z,26.80
2018-06-16T12:29:03.342Z,26.60
2018-06-16T12:34:00.161Z,26.90
2018-06-16T12:36:28.724Z,27.20
2018-06-16T12:38:57.369Z,27.10
2018-06-16T12:43:54.751Z,27.20
2018-06-16T12:46:23.326Z,27.30
2018-06-16T12:51:21.629Z,27.30
2018-06-16T12:56:18.462Z,27.50
2018-06-16T12:58:47.058Z,27.40
2018-06-16T13:01:15.625Z,27.40
2018-06-16T13:03:45.152Z,27.30
2018-06-16T13:06:13.705Z,27.10
2018-06-16T13:08:42.285Z,27.00
2018-06-16T13:11:12.087Z,27.10
2018-06-16T13:13:40.731Z,27.30
2018-06-16T13:21:05.831Z,27.40
2018-06-16T13:23:34.395Z,27.40
2018-06-16T13:26:02.997Z,27.60
2018-06-16T13:28:31.550Z,27.60
2018-06-16T13:31:00.124Z,27.70
2018-06-16T13:33:28.661Z,27.50
2018-06-16T13:35:57.494Z,27.40
2018-06-16T13:38:26.099Z,27.30
2018-06-16T13:40:55.269Z,27.20
2018-06-16T13:43:23.829Z,27.20
2018-06-16T13:45:52.412Z,27.50
2018-06-16T13:48:20.977Z,27.40
2018-06-16T13:50:49.593Z,27.40
2018-06-16T13:55:47.106Z,27.30
2018-06-16T13:58:15.649Z,27.30
2018-06-16T14:00:44.237Z,27.10
2018-06-16T14:05:41.014Z,26.80
2018-06-16T14:08:09.562Z,26.60
2018-06-16T14:10:38.766Z,26.50
2018-06-16T14:13:07.618Z,26.30
2018-06-16T14:15:36.204Z,26.40
2018-06-16T14:18:05.407Z,26.50
2018-06-16T14:20:34.017Z,26.70
2018-06-16T14:23:02.618Z,26.80
2018-06-16T14:25:31.240Z,26.80
2018-06-16T14:28:00.536Z,26.70
2018-06-16T14:30:29.274Z,26.70
2018-06-16T14:32:57.903Z,26.70
2018-06-16T14:35:26.497Z,26.60
2018-06-16T14:37:55.119Z,26.60
2018-06-16T14:40:24.313Z,26.60
2018-06-16T14:42:53.490Z,26.50
2018-06-16T14:45:22.138Z,26.40
2018-06-16T14:50:18.957Z,26.40
2018-06-16T14:52:47.510Z,26.40
2018-06-16T14:55:16.105Z,26.40
2018-06-16T14:57:44.689Z,26.40
2018-06-16T15:00:13.294Z,26.40
2018-06-16T15:02:41.854Z,26.50
2018-06-16T15:05:10.443Z,26.40
2018-06-16T15:07:39.037Z,26.30
2018-06-16T15:10:07.660Z,26.20
2018-06-16T15:12:36.229Z,26.20
2018-06-16T15:15:05.205Z,26.00
2018-06-16T15:17:33.803Z,26.00
2018-06-16T15:20:02.421Z,26.00
2018-06-16T15:22:30.977Z,26.20
2018-06-16T15:24:59.593Z,26.20
2018-06-16T15:29:56.422Z,26.40
2018-06-16T15:32:24.985Z,26.50
2018-06-16T15:34:53.607Z,26.60
2018-06-16T15:37:22.265Z,26.70
2018-06-16T15:39:50.812Z,26.50
2018-06-16T15:42:19.376Z,26.40
2018-06-16T15:49:44.332Z,26.40
2018-06-16T15:52:12.923Z,26.40
2018-06-16T15:54:41.469Z,26.20
2018-06-16T15:57:10.097Z,26.20
2018-06-16T15:59:38.677Z,26.30
2018-06-16T16:02:07.275Z,26.30
2018-06-16T16:04:35.842Z,26.10
2018-06-16T16:07:04.686Z,26.00
2018-06-16T16:09:33.225Z,25.90
2018-06-16T16:12:01.790Z,25.90
2018-06-16T16:16:58.652Z,25.80
2018-06-16T16:19:27.664Z,25.80
2018-06-16T16:21:56.301Z,25.90
2018-06-16T16:24:24.950Z,25.90
2018-06-16T16:26:53.523Z,25.80
2018-06-16T16:29:22.118Z,25.80
2018-06-16T16:31:51.231Z,25.70
2018-06-16T16:34:19.818Z,25.80
2018-06-16T16:36:48.451Z,25.80
2018-06-16T16:41:46.520Z,25.70
2018-06-16T16:44:15.146Z,25.60
2018-06-16T16:46:43.782Z,25.60
2018-06-16T16:49:12.899Z,25.60
2018-06-16T16:51:41.866Z,25.60
2018-06-16T16:54:10.430Z,25.60
2018-06-16T16:56:39.009Z,25.60
2018-06-16T16:59:07.593Z,25.80
2018-06-16T17:01:36.187Z,25.80
2018-06-16T17:04:04.766Z,25.70
2018-06-16T17:06:34.011Z,25.70
2018-06-16T17:09:02.657Z,25.70
2018-06-16T17:11:31.278Z,25.60
2018-06-16T17:13:59.845Z,25.50
2018-06-16T17:16:29.390Z,25.40
2018-06-16T17:18:58.564Z,25.60
2018-06-16T17:21:28.153Z,25.60
2018-06-16T17:23:56.727Z,25.50
2018-06-16T17:26:25.355Z,25.40
2018-06-16T17:28:53.929Z,25.30
2018-06-16T17:31:22.529Z,25.30
2018-06-16T17:36:19.391Z,25.10
2018-06-16T17:41:16.231Z,25.00
2018-06-16T17:43:44.970Z,25.00
2018-06-16T17:46:13.626Z,24.90
2018-06-16T17:48:42.358Z,24.80
2018-06-16T17:51:10.977Z,24.80
2018-06-16T17:53:39.621Z,24.90
2018-06-16T17:56:08.475Z,25.10
2018-06-16T18:01:05.393Z,24.90
2018-06-16T18:03:33.999Z,24.70
2018-06-16T18:06:02.603Z,24.80
2018-06-16T18:08:31.229Z,24.80
2018-06-16T18:10:59.844Z,24.70
2018-06-16T18:13:28.460Z,24.60
2018-06-16T18:15:57.015Z,24.60
2018-06-16T18:20:53.978Z,24.50
2018-06-16T18:23:22.586Z,24.40
2018-06-16T18:25:51.145Z,24.40
2018-06-16T18:28:19.749Z,24.30
2018-06-16T18:30:48.332Z,24.20
2018-06-16T18:33:18.026Z,24.10
2018-06-16T18:35:47.019Z,24.00
2018-06-16T18:38:16.179Z,24.00
2018-06-16T18:40:44.759Z,24.00
2018-06-16T18:43:13.396Z,23.90
2018-06-16T18:45:42.046Z,23.80
2018-06-16T18:48:10.732Z,23.60
2018-06-16T18:50:40.271Z,23.50
2018-06-16T18:53:08.845Z,23.50
2018-06-16T18:55:37.817Z,23.40
2018-06-16T18:58:06.448Z,23.30
2018-06-16T19:00:35.974Z,23.50
2018-06-16T19:05:34.406Z,23.30
2018-06-16T19:08:03.052Z,23.00
2018-06-16T19:10:31.815Z,22.90
2018-06-16T19:13:00.467Z,22.80
2018-06-16T19:15:29.309Z,22.60
2018-06-16T19:20:32.982Z,22.60
2018-06-16T19:23:01.615Z,22.30
2018-06-16T19:25:30.794Z,22.10
2018-06-16T19:27:59.405Z,22.00
2018-06-16T19:30:29.100Z,22.00
2018-06-16T19:32:58.191Z,21.90
2018-06-16T19:35:27.671Z,22.10
2018-06-16T19:37:56.869Z,22.00
2018-06-16T19:40:25.451Z,22.00
2018-06-16T19:42:54.672Z,22.00
2018-06-16T19:45:23.970Z,22.00
2018-06-16T19:47:52.554Z,21.80
2018-06-16T19:50:21.355Z,21.70
2018-06-16T19:52:49.930Z,21.60
2018-06-16T19:55:19.203Z,21.50
2018-06-16T19:57:47.855Z,21.50
2018-06-16T20:00:16.425Z,21.60
2018-06-16T20:02:45.021Z,21.60
2018-06-16T20:05:13.667Z,21.50
2018-06-16T20:07:42.275Z,21.40
2018-06-16T20:10:10.870Z,21.30
2018-06-16T20:12:39.404Z,21.20
2018-06-16T20:15:07.997Z,21.10
2018-06-16T20:17:36.535Z,21.00
2018-06-16T20:22:35.306Z,20.80
2018-06-16T20:25:03.971Z,20.70
2018-06-16T20:27:32.646Z,20.70
2018-06-16T20:30:01.292Z,20.70
2018-06-16T20:32:30.137Z,20.60
2018-06-16T20:34:58.698Z,20.40
2018-06-16T20:37:27.371Z,20.30
2018-06-16T20:39:55.935Z,20.20
2018-06-16T20:42:24.553Z,20.20
2018-06-16T20:44:53.090Z,20.10
2018-06-16T20:47:21.661Z,20.00
2018-06-16T20:49:51.341Z,19.90
2018-06-16T20:52:20.030Z,19.80
2018-06-16T20:54:48.595Z,19.70
2018-06-16T20:57:17.712Z,19.60
2018-06-16T20:59:46.324Z,19.70
2018-06-16T21:02:14.939Z,19.80
2018-06-16T21:07:11.800Z,19.90
2018-06-16T21:12:08.665Z,19.70
2018-06-16T21:14:37.241Z,19.70
2018-06-16T21:19:34.041Z,19.70
2018-06-16T21:22:02.961Z,19.60
2018-06-16T21:24:31.850Z,19.70
2018-06-16T21:27:00.552Z,19.80
2018-06-16T21:29:29.100Z,19.80
2018-06-16T21:31:57.669Z,19.80
2018-06-16T21:34:26.951Z,19.70
2018-06-16T21:39:24.383Z,19.60
2018-06-16T21:41:54.208Z,19.50
2018-06-16T21:44:22.746Z,19.50
2018-06-16T21:46:51.781Z,19.30
2018-06-16T21:49:20.368Z,19.40
2018-06-16T21:51:48.909Z,19.40
2018-06-16T21:54:17.842Z,19.40
2018-06-16T21:56:46.461Z,19.40
2018-06-16T22:01:43.937Z,19.30
2018-06-16T22:06:40.790Z,19.30
2018-06-16T22:11:38.542Z,19.30
2018-06-16T22:14:07.394Z,19.30
2018-06-16T22:16:36.002Z,19.30
2018-06-16T22:19:04.614Z,19.10
2018-06-16T22:21:34.165Z,19.00
2018-06-16T22:24:02.768Z,19.00
2018-06-16T22:26:31.377Z,19.00
2018-06-16T22:28:59.972Z,18.80
2018-06-16T22:31:28.529Z,18.80
2018-06-16T22:33:57.261Z,18.70
2018-06-16T22:36:25.877Z,18.60
2018-06-16T22:38:54.733Z,18.50
2018-06-16T22:41:23.286Z,18.50
2018-06-16T22:43:51.873Z,18.50
2018-06-16T22:46:20.465Z,18.50
2018-06-16T22:48:49.052Z,18.60
2018-06-16T22:51:17.608Z,18.50
2018-06-16T22:53:47.523Z,18.40
2018-06-16T22:56:16.683Z,18.30
2018-06-16T23:01:13.502Z,18.40
2018-06-16T23:03:42.061Z,18.30
2018-06-16T23:06:11.994Z,18.30
2018-06-16T23:08:40.630Z,18.20
2018-06-16T23:13:37.465Z,18.10
2018-06-16T23:16:06.021Z,18.10
2018-06-16T23:18:35.247Z,18.10
2018-06-16T23:21:03.932Z,18.10
2018-06-16T23:23:32.463Z,18.10
2018-06-16T23:26:01.033Z,18.10
2018-06-16T23:30:57.828Z,18.10
2018-06-16T23:33:26.361Z,18.00
2018-06-16T23:35:54.922Z,18.00
2018-06-16T23:38:23.495Z,18.10
2018-06-16T23:40:52.073Z,18.10
2018-06-16T23:43:20.622Z,18.00
2018-06-16T23:45:49.182Z,17.80
2018-06-16T23:48:17.705Z,17.60
2018-06-16T23:50:46.278Z,17.50
2018-06-16T23:53:14.941Z,17.50
2018-06-16T23:55:44.165Z,17.50
2018-06-16T23:58:12.709Z,17.50
